sensor_id;sensor_type;location;lat;lon;timestamp;P1;durP1;ratioP1;P2;durP2;ratioP2
13973;SDS011;7060;43.770;4.008;2024-03-22T00:02:09;3.90;;;3.20;;
13973;SDS011;7060;43.770;4.008;2024-03-22T00:04:37;5.23;;;3.50;;
13973;SDS011;7060;43.770;4.008;2024-03-22T00:07:03;5.27;;;3.10;;
13973;SDS011;7060;43.770;4.008;2024-03-22T00:09:30;4.43;;;3.03;;
13973;SDS011;7060;43.770;4.008;2024-03-22T00:11:56;5.00;;;3.20;;
13973;SDS011;7060;43.770;4.008;2024-03-22T00:14:24;7.23;;;3.20;;
13973;SDS011;7060;43.770;4.008;2024-03-22T00:16:51;8.00;;;3.07;;
13973;SDS011;7060;43.770;4.008;2024-03-22T00:19:18;3.17;;;2.27;;
13973;SDS011;7060;43.770;4.008;2024-03-22T00:21:44;3.57;;;2.70;;
13973;SDS011;7060;43.770;4.008;2024-03-22T00:24:11;4.80;;;2.90;;
13973;SDS011;7060;43.770;4.008;2024-03-22T00:26:37;3.57;;;2.50;;
13973;SDS011;7060;43.770;4.008;2024-03-22T00:29:04;6.10;;;2.67;;
13973;SDS011;7060;43.770;4.008;2024-03-22T00:31:30;4.93;;;2.87;;
13973;SDS011;7060;43.770;4.008;2024-03-22T00:33:59;3.73;;;2.43;;
13973;SDS011;7060;43.770;4.008;2024-03-22T00:36:25;4.60;;;2.60;;
13973;SDS011;7060;43.770;4.008;2024-03-22T00:38:52;3.87;;;2.80;;
13973;SDS011;7060;43.770;4.008;2024-03-22T00:41:17;5.23;;;2.77;;
13973;SDS011;7060;43.770;4.008;2024-03-22T00:43:44;7.67;;;3.30;;
13973;SDS011;7060;43.770;4.008;2024-03-22T00:46:10;4.43;;;2.93;;
13973;SDS011;7060;43.770;4.008;2024-03-22T00:48:37;8.00;;;3.23;;
13973;SDS011;7060;43.770;4.008;2024-03-22T00:51:05;6.00;;;2.80;;
13973;SDS011;7060;43.770;4.008;2024-03-22T00:53:32;3.90;;;2.47;;
13973;SDS011;7060;43.770;4.008;2024-03-22T00:55:58;3.20;;;2.40;;
13973;SDS011;7060;43.770;4.008;2024-03-22T00:58:26;5.43;;;2.40;;
13973;SDS011;7060;43.770;4.008;2024-03-22T01:00:52;5.03;;;3.10;;
13973;SDS011;7060;43.770;4.008;2024-03-22T01:03:20;3.63;;;2.17;;
13973;SDS011;7060;43.770;4.008;2024-03-22T01:05:46;4.73;;;2.80;;
13973;SDS011;7060;43.770;4.008;2024-03-22T01:08:14;3.67;;;2.57;;
13973;SDS011;7060;43.770;4.008;2024-03-22T01:10:40;4.57;;;2.90;;
13973;SDS011;7060;43.770;4.008;2024-03-22T01:13:07;3.50;;;2.17;;
13973;SDS011;7060;43.770;4.008;2024-03-22T01:15:33;2.80;;;2.03;;
13973;SDS011;7060;43.770;4.008;2024-03-22T01:18:01;5.73;;;2.37;;
13973;SDS011;7060;43.770;4.008;2024-03-22T01:20:27;4.30;;;2.30;;
13973;SDS011;7060;43.770;4.008;2024-03-22T01:22:54;6.20;;;2.27;;
13973;SDS011;7060;43.770;4.008;2024-03-22T01:25:21;6.33;;;2.80;;
13973;SDS011;7060;43.770;4.008;2024-03-22T01:27:48;3.43;;;2.03;;
13973;SDS011;7060;43.770;4.008;2024-03-22T01:30:14;5.10;;;2.40;;
13973;SDS011;7060;43.770;4.008;2024-03-22T01:32:41;4.53;;;2.60;;
13973;SDS011;7060;43.770;4.008;2024-03-22T01:35:08;6.50;;;2.63;;
13973;SDS011;7060;43.770;4.008;2024-03-22T01:37:35;3.23;;;2.60;;
13973;SDS011;7060;43.770;4.008;2024-03-22T01:40:01;4.53;;;2.70;;
13973;SDS011;7060;43.770;4.008;2024-03-22T01:42:30;4.37;;;2.67;;
13973;SDS011;7060;43.770;4.008;2024-03-22T01:44:56;5.57;;;2.77;;
13973;SDS011;7060;43.770;4.008;2024-03-22T01:47:23;6.33;;;2.53;;
13973;SDS011;7060;43.770;4.008;2024-03-22T01:49:50;4.17;;;2.27;;
13973;SDS011;7060;43.770;4.008;2024-03-22T01:52:21;6.07;;;2.27;;
13973;SDS011;7060;43.770;4.008;2024-03-22T01:54:47;3.87;;;2.03;;
13973;SDS011;7060;43.770;4.008;2024-03-22T01:57:15;4.00;;;2.40;;
13973;SDS011;7060;43.770;4.008;2024-03-22T01:59:43;6.70;;;2.23;;
13973;SDS011;7060;43.770;4.008;2024-03-22T02:02:10;5.40;;;2.50;;
13973;SDS011;7060;43.770;4.008;2024-03-22T02:04:36;4.50;;;2.20;;
13973;SDS011;7060;43.770;4.008;2024-03-22T02:07:04;4.93;;;2.00;;
13973;SDS011;7060;43.770;4.008;2024-03-22T02:09:30;3.33;;;1.57;;
13973;SDS011;7060;43.770;4.008;2024-03-22T02:11:57;4.83;;;2.00;;
13973;SDS011;7060;43.770;4.008;2024-03-22T02:14:23;4.00;;;2.33;;
13973;SDS011;7060;43.770;4.008;2024-03-22T02:16:52;7.20;;;2.10;;
13973;SDS011;7060;43.770;4.008;2024-03-22T02:19:18;3.70;;;1.60;;
13973;SDS011;7060;43.770;4.008;2024-03-22T02:21:45;2.93;;;1.60;;
13973;SDS011;7060;43.770;4.008;2024-03-22T02:24:12;3.70;;;1.90;;
13973;SDS011;7060;43.770;4.008;2024-03-22T02:26:39;3.50;;;2.20;;
13973;SDS011;7060;43.770;4.008;2024-03-22T02:29:05;4.20;;;2.10;;
13973;SDS011;7060;43.770;4.008;2024-03-22T02:31:32;4.30;;;1.70;;
13973;SDS011;7060;43.770;4.008;2024-03-22T02:33:58;2.23;;;1.70;;
13973;SDS011;7060;43.770;4.008;2024-03-22T02:36:26;3.73;;;1.90;;
13973;SDS011;7060;43.770;4.008;2024-03-22T02:38:52;3.00;;;1.73;;
13973;SDS011;7060;43.770;4.008;2024-03-22T02:41:20;4.03;;;2.20;;
13973;SDS011;7060;43.770;4.008;2024-03-22T02:43:46;3.00;;;2.30;;
13973;SDS011;7060;43.770;4.008;2024-03-22T02:46:13;4.10;;;2.50;;
13973;SDS011;7060;43.770;4.008;2024-03-22T02:48:39;5.13;;;2.20;;
13973;SDS011;7060;43.770;4.008;2024-03-22T02:51:06;5.80;;;2.00;;
13973;SDS011;7060;43.770;4.008;2024-03-22T02:53:32;6.73;;;1.83;;
13973;SDS011;7060;43.770;4.008;2024-03-22T02:55:59;6.23;;;2.20;;
13973;SDS011;7060;43.770;4.008;2024-03-22T02:58:27;4.00;;;1.93;;
13973;SDS011;7060;43.770;4.008;2024-03-22T03:00:54;2.37;;;1.87;;
13973;SDS011;7060;43.770;4.008;2024-03-22T03:03:20;3.27;;;1.90;;
13973;SDS011;7060;43.770;4.008;2024-03-22T03:05:47;5.97;;;2.47;;
13973;SDS011;7060;43.770;4.008;2024-03-22T03:08:13;5.63;;;2.40;;
13973;SDS011;7060;43.770;4.008;2024-03-22T03:10:40;2.83;;;1.90;;
13973;SDS011;7060;43.770;4.008;2024-03-22T03:13:06;3.73;;;1.93;;
13973;SDS011;7060;43.770;4.008;2024-03-22T03:15:34;3.67;;;1.77;;
13973;SDS011;7060;43.770;4.008;2024-03-22T03:18:00;5.10;;;2.20;;
13973;SDS011;7060;43.770;4.008;2024-03-22T03:20:27;3.67;;;1.97;;
13973;SDS011;7060;43.770;4.008;2024-03-22T03:22:53;3.67;;;1.63;;
13973;SDS011;7060;43.770;4.008;2024-03-22T03:25:21;4.70;;;2.50;;
13973;SDS011;7060;43.770;4.008;2024-03-22T03:27:46;3.60;;;1.70;;
13973;SDS011;7060;43.770;4.008;2024-03-22T03:30:13;4.00;;;2.17;;
13973;SDS011;7060;43.770;4.008;2024-03-22T03:32:41;2.00;;;1.63;;
13973;SDS011;7060;43.770;4.008;2024-03-22T03:35:08;3.03;;;1.90;;
13973;SDS011;7060;43.770;4.008;2024-03-22T03:37:34;3.90;;;1.87;;
13973;SDS011;7060;43.770;4.008;2024-03-22T03:40:01;3.10;;;2.03;;
13973;SDS011;7060;43.770;4.008;2024-03-22T03:42:27;3.10;;;1.90;;
13973;SDS011;7060;43.770;4.008;2024-03-22T03:44:54;3.87;;;2.10;;
13973;SDS011;7060;43.770;4.008;2024-03-22T03:47:20;1.57;;;1.40;;
13973;SDS011;7060;43.770;4.008;2024-03-22T03:49:48;6.30;;;1.87;;
13973;SDS011;7060;43.770;4.008;2024-03-22T03:52:14;3.90;;;1.50;;
13973;SDS011;7060;43.770;4.008;2024-03-22T03:54:41;6.63;;;2.00;;
13973;SDS011;7060;43.770;4.008;2024-03-22T03:57:07;6.30;;;1.63;;
13973;SDS011;7060;43.770;4.008;2024-03-22T03:59:34;2.10;;;1.40;;
13973;SDS011;7060;43.770;4.008;2024-03-22T04:02:00;5.00;;;1.60;;
13973;SDS011;7060;43.770;4.008;2024-03-22T04:04:27;4.30;;;2.00;;
13973;SDS011;7060;43.770;4.008;2024-03-22T04:06:54;3.30;;;1.50;;
13973;SDS011;7060;43.770;4.008;2024-03-22T04:09:21;7.07;;;1.40;;
13973;SDS011;7060;43.770;4.008;2024-03-22T04:11:48;1.80;;;1.13;;
13973;SDS011;7060;43.770;4.008;2024-03-22T04:14:14;3.20;;;1.73;;
13973;SDS011;7060;43.770;4.008;2024-03-22T04:16:41;3.40;;;1.63;;
13973;SDS011;7060;43.770;4.008;2024-03-22T04:19:07;10.00;;;1.80;;
13973;SDS011;7060;43.770;4.008;2024-03-22T04:21:34;3.53;;;1.60;;
13973;SDS011;7060;43.770;4.008;2024-03-22T04:24:02;2.27;;;1.50;;
13973;SDS011;7060;43.770;4.008;2024-03-22T04:26:29;2.63;;;1.57;;
13973;SDS011;7060;43.770;4.008;2024-03-22T04:28:55;2.70;;;1.33;;
13973;SDS011;7060;43.770;4.008;2024-03-22T04:31:22;2.00;;;1.60;;
13973;SDS011;7060;43.770;4.008;2024-03-22T04:33:48;2.73;;;1.13;;
13973;SDS011;7060;43.770;4.008;2024-03-22T04:36:15;3.50;;;1.40;;
13973;SDS011;7060;43.770;4.008;2024-03-22T04:38:41;3.97;;;1.63;;
13973;SDS011;7060;43.770;4.008;2024-03-22T04:41:09;3.57;;;1.87;;
13973;SDS011;7060;43.770;4.008;2024-03-22T04:43:36;2.93;;;1.50;;
13973;SDS011;7060;43.770;4.008;2024-03-22T04:46:03;3.30;;;1.20;;
13973;SDS011;7060;43.770;4.008;2024-03-22T04:48:29;5.43;;;1.73;;
13973;SDS011;7060;43.770;4.008;2024-03-22T04:50:56;2.33;;;1.60;;
13973;SDS011;7060;43.770;4.008;2024-03-22T04:53:22;2.87;;;1.50;;
13973;SDS011;7060;43.770;4.008;2024-03-22T04:55:49;3.57;;;1.30;;
13973;SDS011;7060;43.770;4.008;2024-03-22T04:58:17;1.20;;;0.90;;
13973;SDS011;7060;43.770;4.008;2024-03-22T05:00:46;4.70;;;1.40;;
13973;SDS011;7060;43.770;4.008;2024-03-22T05:03:13;3.83;;;1.50;;
13973;SDS011;7060;43.770;4.008;2024-03-22T05:05:41;2.57;;;1.00;;
13973;SDS011;7060;43.770;4.008;2024-03-22T05:08:08;2.50;;;0.90;;
13973;SDS011;7060;43.770;4.008;2024-03-22T05:10:35;1.77;;;1.20;;
13973;SDS011;7060;43.770;4.008;2024-03-22T05:13:02;2.70;;;1.03;;
13973;SDS011;7060;43.770;4.008;2024-03-22T05:15:29;3.00;;;1.30;;
13973;SDS011;7060;43.770;4.008;2024-03-22T05:17:57;3.43;;;1.30;;
13973;SDS011;7060;43.770;4.008;2024-03-22T05:20:23;2.70;;;2.13;;
13973;SDS011;7060;43.770;4.008;2024-03-22T05:22:51;2.73;;;1.50;;
13973;SDS011;7060;43.770;4.008;2024-03-22T05:25:17;4.93;;;1.23;;
13973;SDS011;7060;43.770;4.008;2024-03-22T05:27:44;2.87;;;0.90;;
13973;SDS011;7060;43.770;4.008;2024-03-22T05:30:11;3.17;;;1.50;;
13973;SDS011;7060;43.770;4.008;2024-03-22T05:32:41;1.87;;;1.10;;
13973;SDS011;7060;43.770;4.008;2024-03-22T05:35:07;2.07;;;1.30;;
13973;SDS011;7060;43.770;4.008;2024-03-22T05:37:34;2.67;;;0.93;;
13973;SDS011;7060;43.770;4.008;2024-03-22T05:40:00;3.97;;;1.20;;
13973;SDS011;7060;43.770;4.008;2024-03-22T05:42:29;3.03;;;1.00;;
13973;SDS011;7060;43.770;4.008;2024-03-22T05:44:55;1.80;;;1.10;;
13973;SDS011;7060;43.770;4.008;2024-03-22T05:47:22;2.13;;;1.00;;
13973;SDS011;7060;43.770;4.008;2024-03-22T05:49:50;1.63;;;1.00;;
13973;SDS011;7060;43.770;4.008;2024-03-22T05:52:17;2.97;;;0.80;;
13973;SDS011;7060;43.770;4.008;2024-03-22T05:54:43;3.47;;;2.13;;
13973;SDS011;7060;43.770;4.008;2024-03-22T05:57:09;5.20;;;1.67;;
13973;SDS011;7060;43.770;4.008;2024-03-22T05:59:37;1.60;;;0.83;;
13973;SDS011;7060;43.770;4.008;2024-03-22T06:02:04;4.07;;;1.27;;
13973;SDS011;7060;43.770;4.008;2024-03-22T06:04:31;3.13;;;1.10;;
13973;SDS011;7060;43.770;4.008;2024-03-22T06:06:58;2.50;;;1.20;;
13973;SDS011;7060;43.770;4.008;2024-03-22T06:09:28;1.50;;;1.10;;
13973;SDS011;7060;43.770;4.008;2024-03-22T06:12:02;4.53;;;1.27;;
13973;SDS011;7060;43.770;4.008;2024-03-22T06:14:30;4.60;;;1.80;;
13973;SDS011;7060;43.770;4.008;2024-03-22T06:16:56;14.63;;;1.20;;
13973;SDS011;7060;43.770;4.008;2024-03-22T06:19:24;5.30;;;1.23;;
13973;SDS011;7060;43.770;4.008;2024-03-22T06:21:49;2.60;;;1.17;;
13973;SDS011;7060;43.770;4.008;2024-03-22T06:24:18;2.23;;;1.07;;
13973;SDS011;7060;43.770;4.008;2024-03-22T06:26:44;2.20;;;1.07;;
13973;SDS011;7060;43.770;4.008;2024-03-22T06:29:11;2.00;;;1.00;;
13973;SDS011;7060;43.770;4.008;2024-03-22T06:31:38;3.00;;;1.13;;
13973;SDS011;7060;43.770;4.008;2024-03-22T06:34:05;2.37;;;1.03;;
13973;SDS011;7060;43.770;4.008;2024-03-22T06:36:31;3.47;;;1.10;;
13973;SDS011;7060;43.770;4.008;2024-03-22T06:38:58;3.90;;;1.20;;
13973;SDS011;7060;43.770;4.008;2024-03-22T06:41:27;1.37;;;1.00;;
13973;SDS011;7060;43.770;4.008;2024-03-22T06:43:54;1.50;;;1.00;;
13973;SDS011;7060;43.770;4.008;2024-03-22T06:46:20;1.10;;;0.80;;
13973;SDS011;7060;43.770;4.008;2024-03-22T06:48:48;2.50;;;1.13;;
13973;SDS011;7060;43.770;4.008;2024-03-22T06:51:14;3.23;;;1.17;;
13973;SDS011;7060;43.770;4.008;2024-03-22T06:53:41;4.83;;;1.40;;
13973;SDS011;7060;43.770;4.008;2024-03-22T06:56:07;1.90;;;0.93;;
13973;SDS011;7060;43.770;4.008;2024-03-22T06:58:38;5.17;;;1.10;;
13973;SDS011;7060;43.770;4.008;2024-03-22T07:01:04;2.03;;;1.20;;
13973;SDS011;7060;43.770;4.008;2024-03-22T07:03:34;1.70;;;1.10;;
13973;SDS011;7060;43.770;4.008;2024-03-22T07:06:00;3.87;;;1.00;;
13973;SDS011;7060;43.770;4.008;2024-03-22T07:08:27;1.53;;;0.80;;
13973;SDS011;7060;43.770;4.008;2024-03-22T07:10:54;3.20;;;1.67;;
13973;SDS011;7060;43.770;4.008;2024-03-22T07:13:21;2.30;;;1.13;;
13973;SDS011;7060;43.770;4.008;2024-03-22T07:15:48;1.83;;;1.17;;
13973;SDS011;7060;43.770;4.008;2024-03-22T07:18:16;4.70;;;3.70;;
13973;SDS011;7060;43.770;4.008;2024-03-22T07:20:42;4.77;;;3.20;;
13973;SDS011;7060;43.770;4.008;2024-03-22T07:23:09;2.47;;;1.83;;
13973;SDS011;7060;43.770;4.008;2024-03-22T07:25:35;3.90;;;1.97;;
13973;SDS011;7060;43.770;4.008;2024-03-22T07:28:02;6.60;;;2.00;;
13973;SDS011;7060;43.770;4.008;2024-03-22T07:30:29;4.67;;;2.53;;
13973;SDS011;7060;43.770;4.008;2024-03-22T07:32:57;7.67;;;4.67;;
13973;SDS011;7060;43.770;4.008;2024-03-22T07:35:23;7.47;;;3.80;;
13973;SDS011;7060;43.770;4.008;2024-03-22T07:37:51;3.93;;;3.20;;
13973;SDS011;7060;43.770;4.008;2024-03-22T07:40:17;6.47;;;2.17;;
13973;SDS011;7060;43.770;4.008;2024-03-22T07:42:45;2.57;;;1.37;;
13973;SDS011;7060;43.770;4.008;2024-03-22T07:45:11;5.03;;;1.33;;
13973;SDS011;7060;43.770;4.008;2024-03-22T07:47:38;2.17;;;1.00;;
13973;SDS011;7060;43.770;4.008;2024-03-22T07:50:09;3.63;;;1.00;;
13973;SDS011;7060;43.770;4.008;2024-03-22T07:52:36;6.47;;;1.10;;
13973;SDS011;7060;43.770;4.008;2024-03-22T07:55:02;4.43;;;1.23;;
13973;SDS011;7060;43.770;4.008;2024-03-22T07:57:30;1.60;;;1.10;;
13973;SDS011;7060;43.770;4.008;2024-03-22T07:59:56;3.60;;;1.00;;
13973;SDS011;7060;43.770;4.008;2024-03-22T08:02:23;4.50;;;1.33;;
13973;SDS011;7060;43.770;4.008;2024-03-22T08:04:49;6.63;;;1.10;;
13973;SDS011;7060;43.770;4.008;2024-03-22T08:07:17;3.00;;;1.03;;
13973;SDS011;7060;43.770;4.008;2024-03-22T08:09:43;4.00;;;1.37;;
13973;SDS011;7060;43.770;4.008;2024-03-22T08:12:10;3.97;;;1.10;;
13973;SDS011;7060;43.770;4.008;2024-03-22T08:14:37;1.60;;;1.17;;
13973;SDS011;7060;43.770;4.008;2024-03-22T08:17:04;3.23;;;0.93;;
13973;SDS011;7060;43.770;4.008;2024-03-22T08:19:30;1.27;;;0.70;;
13973;SDS011;7060;43.770;4.008;2024-03-22T08:21:59;0.90;;;0.60;;
13973;SDS011;7060;43.770;4.008;2024-03-22T08:24:27;2.57;;;0.87;;
13973;SDS011;7060;43.770;4.008;2024-03-22T08:26:54;4.53;;;1.17;;
13973;SDS011;7060;43.770;4.008;2024-03-22T08:29:20;2.93;;;1.13;;
13973;SDS011;7060;43.770;4.008;2024-03-22T08:31:47;1.37;;;0.90;;
13973;SDS011;7060;43.770;4.008;2024-03-22T08:34:13;1.60;;;1.00;;
13973;SDS011;7060;43.770;4.008;2024-03-22T08:36:40;2.27;;;0.70;;
13973;SDS011;7060;43.770;4.008;2024-03-22T08:39:06;1.97;;;0.97;;
13973;SDS011;7060;43.770;4.008;2024-03-22T08:41:37;2.53;;;1.00;;
13973;SDS011;7060;43.770;4.008;2024-03-22T08:44:03;5.00;;;1.37;;
13973;SDS011;7060;43.770;4.008;2024-03-22T08:46:30;8.07;;;2.03;;
13973;SDS011;7060;43.770;4.008;2024-03-22T08:48:57;7.50;;;1.60;;
13973;SDS011;7060;43.770;4.008;2024-03-22T08:51:24;4.33;;;1.10;;
13973;SDS011;7060;43.770;4.008;2024-03-22T08:53:50;1.40;;;0.87;;
13973;SDS011;7060;43.770;4.008;2024-03-22T08:56:17;4.63;;;1.03;;
13973;SDS011;7060;43.770;4.008;2024-03-22T08:58:44;5.13;;;1.33;;
13973;SDS011;7060;43.770;4.008;2024-03-22T09:01:11;2.20;;;1.07;;
13973;SDS011;7060;43.770;4.008;2024-03-22T09:03:37;5.10;;;1.37;;
13973;SDS011;7060;43.770;4.008;2024-03-22T09:06:05;4.70;;;1.00;;
13973;SDS011;7060;43.770;4.008;2024-03-22T09:08:31;3.53;;;1.30;;
13973;SDS011;7060;43.770;4.008;2024-03-22T09:10:59;2.10;;;0.80;;
13973;SDS011;7060;43.770;4.008;2024-03-22T09:13:25;3.27;;;1.10;;
13973;SDS011;7060;43.770;4.008;2024-03-22T09:15:57;2.43;;;1.20;;
13973;SDS011;7060;43.770;4.008;2024-03-22T09:18:23;2.30;;;1.20;;
13973;SDS011;7060;43.770;4.008;2024-03-22T09:20:50;4.03;;;1.60;;
13973;SDS011;7060;43.770;4.008;2024-03-22T09:23:16;11.67;;;1.93;;
13973;SDS011;7060;43.770;4.008;2024-03-22T09:25:43;2.67;;;1.53;;
13973;SDS011;7060;43.770;4.008;2024-03-22T09:28:09;3.10;;;1.40;;
13973;SDS011;7060;43.770;4.008;2024-03-22T09:30:37;2.33;;;1.43;;
13973;SDS011;7060;43.770;4.008;2024-03-22T09:33:05;3.50;;;1.80;;
13973;SDS011;7060;43.770;4.008;2024-03-22T09:35:33;2.63;;;1.40;;
13973;SDS011;7060;43.770;4.008;2024-03-22T09:37:59;2.53;;;1.50;;
13973;SDS011;7060;43.770;4.008;2024-03-22T09:40:26;2.97;;;1.50;;
13973;SDS011;7060;43.770;4.008;2024-03-22T09:42:52;2.83;;;1.42;;
13973;SDS011;7060;43.770;4.008;2024-03-22T09:45:20;4.53;;;1.60;;
13973;SDS011;7060;43.770;4.008;2024-03-22T09:47:46;4.10;;;1.20;;
13973;SDS011;7060;43.770;4.008;2024-03-22T09:50:16;2.37;;;1.23;;
13973;SDS011;7060;43.770;4.008;2024-03-22T09:52:42;4.13;;;1.67;;
13973;SDS011;7060;43.770;4.008;2024-03-22T09:55:12;2.63;;;1.13;;
13973;SDS011;7060;43.770;4.008;2024-03-22T09:57:39;1.48;;;1.02;;
13973;SDS011;7060;43.770;4.008;2024-03-22T10:00:08;2.90;;;1.23;;
13973;SDS011;7060;43.770;4.008;2024-03-22T10:02:39;2.42;;;1.00;;
13973;SDS011;7060;43.770;4.008;2024-03-22T10:05:09;5.32;;;1.30;;
13973;SDS011;7060;43.770;4.008;2024-03-22T10:07:36;1.10;;;0.95;;
13973;SDS011;7060;43.770;4.008;2024-03-22T10:10:04;2.03;;;1.00;;
13973;SDS011;7060;43.770;4.008;2024-03-22T10:12:30;2.15;;;0.75;;
13973;SDS011;7060;43.770;4.008;2024-03-22T10:14:58;2.20;;;1.20;;
13973;SDS011;7060;43.770;4.008;2024-03-22T10:17:25;2.10;;;0.80;;
13973;SDS011;7060;43.770;4.008;2024-03-22T10:19:53;1.30;;;0.93;;
13973;SDS011;7060;43.770;4.008;2024-03-22T10:22:19;1.67;;;0.73;;
13973;SDS011;7060;43.770;4.008;2024-03-22T10:24:48;2.13;;;0.80;;
13973;SDS011;7060;43.770;4.008;2024-03-22T10:27:14;2.63;;;0.90;;
13973;SDS011;7060;43.770;4.008;2024-03-22T10:29:41;1.52;;;0.82;;
13973;SDS011;7060;43.770;4.008;2024-03-22T10:32:07;1.20;;;0.73;;
13973;SDS011;7060;43.770;4.008;2024-03-22T10:34:35;0.95;;;0.70;;
13973;SDS011;7060;43.770;4.008;2024-03-22T10:37:02;1.60;;;1.05;;
13973;SDS011;7060;43.770;4.008;2024-03-22T10:39:30;2.17;;;1.00;;
13973;SDS011;7060;43.770;4.008;2024-03-22T10:41:58;2.10;;;0.98;;
13973;SDS011;7060;43.770;4.008;2024-03-22T10:44:25;1.35;;;0.90;;
13973;SDS011;7060;43.770;4.008;2024-03-22T10:46:51;2.38;;;1.00;;
13973;SDS011;7060;43.770;4.008;2024-03-22T10:49:24;1.27;;;0.80;;
13973;SDS011;7060;43.770;4.008;2024-03-22T10:51:51;3.38;;;1.00;;
13973;SDS011;7060;43.770;4.008;2024-03-22T10:54:21;1.50;;;1.00;;
13973;SDS011;7060;43.770;4.008;2024-03-22T10:57:05;1.65;;;0.85;;
13973;SDS011;7060;43.770;4.008;2024-03-22T10:59:33;2.58;;;0.90;;
13973;SDS011;7060;43.770;4.008;2024-03-22T11:02:02;1.60;;;1.13;;
13973;SDS011;7060;43.770;4.008;2024-03-22T11:04:29;1.60;;;0.82;;
13973;SDS011;7060;43.770;4.008;2024-03-22T11:06:57;1.23;;;0.90;;
13973;SDS011;7060;43.770;4.008;2024-03-22T11:09:23;1.73;;;0.90;;
13973;SDS011;7060;43.770;4.008;2024-03-22T11:11:51;1.33;;;0.70;;
13973;SDS011;7060;43.770;4.008;2024-03-22T11:14:20;2.63;;;0.93;;
13973;SDS011;7060;43.770;4.008;2024-03-22T11:16:49;1.13;;;0.80;;
13973;SDS011;7060;43.770;4.008;2024-03-22T11:19:16;0.85;;;0.70;;
13973;SDS011;7060;43.770;4.008;2024-03-22T11:21:43;2.05;;;0.70;;
13973;SDS011;7060;43.770;4.008;2024-03-22T11:24:09;2.58;;;0.77;;
13973;SDS011;7060;43.770;4.008;2024-03-22T11:26:36;2.45;;;0.70;;
13973;SDS011;7060;43.770;4.008;2024-03-22T11:29:03;1.95;;;0.70;;
13973;SDS011;7060;43.770;4.008;2024-03-22T11:31:31;2.50;;;0.55;;
13973;SDS011;7060;43.770;4.008;2024-03-22T11:33:57;2.17;;;0.60;;
13973;SDS011;7060;43.770;4.008;2024-03-22T11:36:24;1.85;;;0.80;;
13973;SDS011;7060;43.770;4.008;2024-03-22T11:38:50;2.22;;;0.60;;
13973;SDS011;7060;43.770;4.008;2024-03-22T11:41:19;0.82;;;0.60;;
13973;SDS011;7060;43.770;4.008;2024-03-22T11:43:49;1.00;;;0.68;;
13973;SDS011;7060;43.770;4.008;2024-03-22T11:46:17;0.60;;;0.50;;
13973;SDS011;7060;43.770;4.008;2024-03-22T11:48:45;1.58;;;0.70;;
13973;SDS011;7060;43.770;4.008;2024-03-22T11:51:17;1.75;;;0.65;;
13973;SDS011;7060;43.770;4.008;2024-03-22T11:53:48;1.42;;;0.40;;
13973;SDS011;7060;43.770;4.008;2024-03-22T11:56:17;7.10;;;0.57;;
13973;SDS011;7060;43.770;4.008;2024-03-22T11:58:45;2.20;;;0.50;;
13973;SDS011;7060;43.770;4.008;2024-03-22T12:01:12;1.35;;;0.50;;
13973;SDS011;7060;43.770;4.008;2024-03-22T12:03:39;1.10;;;0.63;;
13973;SDS011;7060;43.770;4.008;2024-03-22T12:06:10;1.70;;;0.73;;
13973;SDS011;7060;43.770;4.008;2024-03-22T12:08:36;2.65;;;0.50;;
13973;SDS011;7060;43.770;4.008;2024-03-22T12:11:06;1.15;;;0.50;;
13973;SDS011;7060;43.770;4.008;2024-03-22T12:13:33;1.52;;;0.50;;
13973;SDS011;7060;43.770;4.008;2024-03-22T12:16:00;1.15;;;0.50;;
13973;SDS011;7060;43.770;4.008;2024-03-22T12:18:26;1.52;;;0.40;;
13973;SDS011;7060;43.770;4.008;2024-03-22T12:20:53;1.02;;;0.63;;
13973;SDS011;7060;43.770;4.008;2024-03-22T12:23:21;1.73;;;0.60;;
13973;SDS011;7060;43.770;4.008;2024-03-22T12:25:50;1.35;;;0.40;;
13973;SDS011;7060;43.770;4.008;2024-03-22T12:28:16;1.02;;;0.60;;
13973;SDS011;7060;43.770;4.008;2024-03-22T12:30:43;1.45;;;0.50;;
13973;SDS011;7060;43.770;4.008;2024-03-22T12:33:09;2.35;;;0.70;;
13973;SDS011;7060;43.770;4.008;2024-03-22T12:35:37;2.28;;;0.60;;
13973;SDS011;7060;43.770;4.008;2024-03-22T12:38:05;0.90;;;0.52;;
13973;SDS011;7060;43.770;4.008;2024-03-22T12:40:33;0.73;;;0.40;;
13973;SDS011;7060;43.770;4.008;2024-03-22T12:43:00;1.73;;;0.47;;
13973;SDS011;7060;43.770;4.008;2024-03-22T12:45:26;3.20;;;0.52;;
13973;SDS011;7060;43.770;4.008;2024-03-22T12:47:52;1.02;;;0.60;;
13973;SDS011;7060;43.770;4.008;2024-03-22T12:50:19;0.73;;;0.50;;
13973;SDS011;7060;43.770;4.008;2024-03-22T12:52:45;1.48;;;0.57;;
13973;SDS011;7060;43.770;4.008;2024-03-22T12:55:12;3.00;;;0.70;;
13973;SDS011;7060;43.770;4.008;2024-03-22T12:57:40;0.60;;;0.50;;
13973;SDS011;7060;43.770;4.008;2024-03-22T13:00:09;0.90;;;0.55;;
13973;SDS011;7060;43.770;4.008;2024-03-22T13:02:38;2.35;;;0.50;;
13973;SDS011;7060;43.770;4.008;2024-03-22T13:05:06;2.25;;;0.50;;
13973;SDS011;7060;43.770;4.008;2024-03-22T13:07:33;1.00;;;0.50;;
13973;SDS011;7060;43.770;4.008;2024-03-22T13:10:00;0.93;;;0.50;;
13973;SDS011;7060;43.770;4.008;2024-03-22T13:12:26;2.30;;;0.70;;
13973;SDS011;7060;43.770;4.008;2024-03-22T13:14:54;1.45;;;0.60;;
13973;SDS011;7060;43.770;4.008;2024-03-22T13:17:20;2.75;;;0.63;;
13973;SDS011;7060;43.770;4.008;2024-03-22T13:19:47;0.80;;;0.52;;
13973;SDS011;7060;43.770;4.008;2024-03-22T13:22:13;2.42;;;0.70;;
13973;SDS011;7060;43.770;4.008;2024-03-22T13:24:43;4.05;;;2.22;;
13973;SDS011;7060;43.770;4.008;2024-03-22T13:27:10;4.40;;;2.25;;
13973;SDS011;7060;43.770;4.008;2024-03-22T13:29:37;5.20;;;2.65;;
13973;SDS011;7060;43.770;4.008;2024-03-22T13:32:05;6.05;;;2.45;;
13973;SDS011;7060;43.770;4.008;2024-03-22T13:34:33;5.47;;;2.88;;
13973;SDS011;7060;43.770;4.008;2024-03-22T13:37:00;7.38;;;3.05;;
13973;SDS011;7060;43.770;4.008;2024-03-22T13:39:27;6.00;;;3.42;;
13973;SDS011;7060;43.770;4.008;2024-03-22T13:41:54;8.65;;;3.72;;
13973;SDS011;7060;43.770;4.008;2024-03-22T13:44:22;8.75;;;4.00;;
13973;SDS011;7060;43.770;4.008;2024-03-22T13:46:48;7.88;;;3.67;;
13973;SDS011;7060;43.770;4.008;2024-03-22T13:49:18;5.78;;;3.58;;
13973;SDS011;7060;43.770;4.008;2024-03-22T13:51:46;8.20;;;3.60;;
13973;SDS011;7060;43.770;4.008;2024-03-22T13:54:14;6.25;;;3.47;;
13973;SDS011;7060;43.770;4.008;2024-03-22T13:56:40;5.30;;;3.17;;
13973;SDS011;7060;43.770;4.008;2024-03-22T13:59:08;8.25;;;3.33;;
13973;SDS011;7060;43.770;4.008;2024-03-22T14:01:34;4.68;;;2.42;;
13973;SDS011;7060;43.770;4.008;2024-03-22T14:04:01;5.30;;;2.80;;
13973;SDS011;7060;43.770;4.008;2024-03-22T14:06:30;9.32;;;3.42;;
13973;SDS011;7060;43.770;4.008;2024-03-22T14:08:57;8.15;;;3.60;;
13973;SDS011;7060;43.770;4.008;2024-03-22T14:11:27;9.38;;;4.28;;
13973;SDS011;7060;43.770;4.008;2024-03-22T14:13:55;7.40;;;3.80;;
13973;SDS011;7060;43.770;4.008;2024-03-22T14:16:22;8.07;;;3.85;;
13973;SDS011;7060;43.770;4.008;2024-03-22T14:18:49;9.43;;;4.43;;
13973;SDS011;7060;43.770;4.008;2024-03-22T14:21:15;11.38;;;4.43;;
13973;SDS011;7060;43.770;4.008;2024-03-22T14:23:46;8.13;;;5.03;;
13973;SDS011;7060;43.770;4.008;2024-03-22T14:26:12;7.53;;;4.05;;
13973;SDS011;7060;43.770;4.008;2024-03-22T14:28:40;9.55;;;4.43;;
13973;SDS011;7060;43.770;4.008;2024-03-22T14:31:06;7.75;;;4.65;;
13973;SDS011;7060;43.770;4.008;2024-03-22T14:33:34;10.20;;;5.13;;
13973;SDS011;7060;43.770;4.008;2024-03-22T14:36:00;12.63;;;4.57;;
13973;SDS011;7060;43.770;4.008;2024-03-22T14:38:27;7.65;;;4.43;;
13973;SDS011;7060;43.770;4.008;2024-03-22T14:40:55;6.05;;;4.38;;
13973;SDS011;7060;43.770;4.008;2024-03-22T14:43:23;7.97;;;4.68;;
13973;SDS011;7060;43.770;4.008;2024-03-22T14:45:50;7.82;;;4.72;;
13973;SDS011;7060;43.770;4.008;2024-03-22T14:48:18;7.53;;;4.78;;
13973;SDS011;7060;43.770;4.008;2024-03-22T14:50:44;7.55;;;4.40;;
13973;SDS011;7060;43.770;4.008;2024-03-22T14:53:11;7.55;;;4.72;;
13973;SDS011;7060;43.770;4.008;2024-03-22T14:55:37;8.05;;;3.97;;
13973;SDS011;7060;43.770;4.008;2024-03-22T14:58:06;7.90;;;4.35;;
13973;SDS011;7060;43.770;4.008;2024-03-22T15:00:32;9.55;;;4.63;;